Time;durP1;ratioP1;P1;durP2;ratioP2;P2;SDS_P1;SDS_P2;PMS_P1;PMS_P2;Temp;Humidity;BMP_temperature;BMP_pressure;BME280_temperature;BME280_humidity;BME280_pressure;Samples;Min_cycle;Max_cycle;Signal;HPM_P1;HPM_P2
2022/08/19 00:01:53;;;;;;;20.20;18.30;;;;;;;20.95;67.58;101260.19;6212410;23;20333;-58
2022/08/19 00:04:24;;;;;;;20.45;18.60;;;;;;;20.93;67.75;101260.47;6210792;23;20016;-59
2022/08/19 00:06:49;;;;;;;20.27;18.38;;;;;;;20.94;67.86;101250.84;6212235;23;20095;-58
2022/08/19 00:09:18;;;;;;;21.63;19.55;;;;;;;20.94;67.91;101261.31;6210742;23;20432;-59
2022/08/19 00:11:44;;;;;;;20.83;18.75;;;;;;;20.90;67.78;101252.63;6212054;23;20008;-59
2022/08/19 00:14:11;;;;;;;21.00;18.92;;;;;;;20.89;68.00;101250.13;6209532;23;20039;-58
2022/08/19 00:16:38;;;;;;;21.80;19.73;;;;;;;20.88;68.00;101246.47;6208861;23;20005;-58
2022/08/19 00:19:04;;;;;;;19.58;17.75;;;;;;;20.94;67.79;101250.03;6211094;23;20031;-59
2022/08/19 00:21:29;;;;;;;20.70;18.63;;;;;;;20.91;67.88;101250.66;6212262;23;20215;-58
2022/08/19 00:23:57;;;;;;;21.88;19.80;;;;;;;20.89;67.99;101255.78;6214846;23;20008;-58
2022/08/19 00:26:24;;;;;;;22.98;20.55;;;;;;;20.88;68.20;101251.28;6212757;23;20005;-58
2022/08/19 00:28:49;;;;;;;23.33;21.05;;;;;;;20.83;68.18;101247.41;6214438;23;20013;-58
2022/08/19 00:31:15;;;;;;;23.42;21.23;;;;;;;20.83;68.33;101244.59;6214561;23;20004;-58
2022/08/19 00:33:42;;;;;;;24.15;21.75;;;;;;;20.79;68.44;101252.03;6213497;23;20036;-59
2022/08/19 00:36:09;;;;;;;23.40;21.20;;;;;;;20.79;68.45;101252.03;6214428;23;20001;-59
2022/08/19 00:38:36;;;;;;;24.58;20.50;;;;;;;20.75;68.49;101253.78;6211540;23;20059;-60
2022/08/19 00:41:02;;;;;;;23.60;21.30;;;;;;;20.72;68.51;101254.41;6214303;23;20051;-57
2022/08/19 00:43:28;;;;;;;25.20;22.65;;;;;;;20.71;68.53;101255.56;6214150;23;20005;-58
2022/08/19 00:45:54;;;;;;;25.27;22.83;;;;;;;20.69;68.49;101257.00;6213567;23;20032;-59
2022/08/19 00:48:20;;;;;;;25.98;23.58;;;;;;;20.68;68.68;101261.81;6214363;23;20012;-58
2022/08/19 00:50:48;;;;;;;25.35;22.85;;;;;;;20.65;69.01;101262.44;6213349;23;20032;-58
2022/08/19 00:53:17;;;;;;;25.83;23.45;;;;;;;20.67;68.90;101264.94;6213647;23;20011;-58
2022/08/19 00:55:46;;;;;;;27.08;24.33;;;;;;;20.63;69.00;101259.06;6212993;23;20365;-58
2022/08/19 00:58:15;;;;;;;26.90;24.13;;;;;;;20.66;68.87;101258.47;6213690;23;20082;-58
2022/08/19 01:00:40;;;;;;;27.55;24.75;;;;;;;20.60;68.96;101259.72;6211461;23;20008;-58
2022/08/19 01:03:10;;;;;;;27.33;24.60;;;;;;;20.57;69.00;101254.69;6214151;23;20083;-58
2022/08/19 01:05:36;;;;;;;27.70;24.75;;;;;;;20.58;69.06;101250.72;6213121;23;20069;-58
2022/08/19 01:08:04;;;;;;;27.48;24.52;;;;;;;20.59;68.98;101255.22;6213717;23;20035;-59
2022/08/19 01:10:33;;;;;;;25.90;23.38;;;;;;;20.54;68.90;101256.16;6214151;23;20005;-59
2022/08/19 01:13:00;;;;;;;27.08;23.77;;;;;;;20.54;69.02;101260.94;6214649;23;20298;-59
2022/08/19 01:15:31;;;;;;;28.77;25.60;;;;;;;20.50;69.13;101259.91;6211615;23;20004;-59
2022/08/19 01:18:00;;;;;;;27.60;24.80;;;;;;;20.52;69.05;101266.91;6212557;23;20016;-59
2022/08/19 01:20:26;;;;;;;26.98;24.38;;;;;;;20.53;69.11;101259.28;6214191;23;20491;-59
2022/08/19 01:22:56;;;;;;;27.55;24.63;;;;;;;20.48;69.40;101257.38;6213849;23;20023;-59
2022/08/19 01:25:29;;;;;;;27.90;25.25;;;;;;;20.42;69.54;101252.97;6212429;23;20039;-58
2022/08/19 01:27:55;;;;;;;27.65;24.85;;;;;;;20.46;69.08;101258.81;6212302;23;20035;-59
2022/08/19 01:30:30;;;;;;;29.08;25.88;;;;;;;20.46;69.13;101256.00;6213467;23;20005;-59
2022/08/19 01:32:56;;;;;;;28.92;26.02;;;;;;;20.40;69.29;101257.25;6214567;23;20005;-59
2022/08/19 01:35:24;;;;;;;27.35;24.65;;;;;;;20.40;69.39;101248.81;6213648;23;20092;-58
2022/08/19 01:37:53;;;;;;;27.95;25.15;;;;;;;20.45;69.04;101248.69;6214074;23;20027;-59
2022/08/19 01:40:21;;;;;;;29.02;26.02;;;;;;;20.39;69.23;101252.75;6212922;23;20013;-59
2022/08/19 01:42:47;;;;;;;29.48;26.48;;;;;;;20.40;69.41;101248.81;6211442;23;20009;-59
2022/08/19 01:45:13;;;;;;;27.90;25.00;;;;;;;20.36;69.29;101257.03;6213483;23;20032;-59
2022/08/19 01:47:39;;;;;;;27.70;25.00;;;;;;;20.36;69.26;101251.41;6213826;23;20047;-59
2022/08/19 01:50:07;;;;;;;28.27;25.27;;;;;;;20.35;68.99;101249.69;6213130;23;20046;-59
2022/08/19 01:52:35;;;;;;;27.60;24.75;;;;;;;20.29;69.37;101246.16;6212988;23;20012;-59
2022/08/19 01:55:00;;;;;;;27.55;24.65;;;;;;;20.30;69.37;101245.00;6212311;23;20421;-58
2022/08/19 01:57:26;;;;;;;27.90;25.10;;;;;;;20.30;69.34;101252.63;6212488;23;20009;-59
2022/08/19 01:59:52;;;;;;;28.27;25.33;;;;;;;20.22;69.38;101250.50;6213741;23;20004;-59
2022/08/19 02:02:17;;;;;;;27.95;24.98;;;;;;;20.27;69.28;101251.25;6213339;23;20040;-59
2022/08/19 02:04:42;;;;;;;27.67;24.80;;;;;;;20.23;69.09;101250.19;6213329;23;20000;-59
2022/08/19 02:07:08;;;;;;;27.27;24.27;;;;;;;20.23;69.02;101253.00;6213670;23;20092;-59
2022/08/19 02:09:34;;;;;;;29.85;25.50;;;;;;;20.15;69.15;101259.34;6213397;23;20000;-59
2022/08/19 02:11:59;;;;;;;27.98;25.08;;;;;;;20.22;69.11;101254.16;6212085;23;20442;-59
2022/08/19 02:14:25;;;;;;;28.63;25.75;;;;;;;20.17;68.90;101271.16;6213372;23;20034;-59
2022/08/19 02:16:50;;;;;;;30.45;25.80;;;;;;;20.17;68.89;101261.88;6213932;23;20080;-58
2022/08/19 02:19:15;;;;;;;30.17;26.40;;;;;;;20.16;68.75;101271.47;6213736;23;20088;-59
2022/08/19 02:21:41;;;;;;;29.55;25.52;;;;;;;20.10;68.62;101273.53;6212399;23;20004;-59
2022/08/19 02:24:06;;;;;;;30.83;26.33;;;;;;;20.06;68.73;101278.13;6211528;23;20020;-58
2022/08/19 02:26:33;;;;;;;30.63;26.33;;;;;;;20.06;68.73;101269.66;6213746;23;20316;-59
2022/08/19 02:28:58;;;;;;;30.88;25.65;;;;;;;20.05;68.52;101270.81;6213276;23;20005;-59
2022/08/19 02:31:25;;;;;;;30.05;24.88;;;;;;;20.08;68.55;101275.81;6212500;23;20000;-58
2022/08/19 02:33:52;;;;;;;28.08;25.08;;;;;;;20.00;68.67;101276.50;6213904;23;20058;-58
2022/08/19 02:36:18;;;;;;;28.50;25.15;;;;;;;20.03;68.39;101279.56;6214102;23;20013;-58
2022/08/19 02:38:44;;;;;;;29.08;25.88;;;;;;;20.02;68.32;101288.31;6210904;23;20023;-58
2022/08/19 02:41:22;;;;;;;29.23;26.10;;;;;;;20.03;68.26;101284.34;6213439;23;20103;-58
2022/08/19 02:43:48;;;;;;;27.40;24.67;;;;;;;20.04;68.32;101289.72;6212105;23;20031;-58
2022/08/19 02:46:17;;;;;;;27.85;24.95;;;;;;;19.97;68.30;101283.63;6212638;23;20012;-58
2022/08/19 02:48:43;;;;;;;30.75;25.27;;;;;;;19.95;68.77;101285.06;6212514;23;20046;-58
2022/08/19 02:51:15;;;;;;;27.60;24.70;;;;;;;19.96;68.36;101289.53;6211879;23;20008;-58
2022/08/19 02:53:41;;;;;;;;;;;;;;;20.20;67.51;101295.94;6212191;23;20004;-58
2022/08/19 02:56:07;;;;;;;31.20;24.75;;;;;;;19.99;68.21;101294.56;6210993;23;19992;-58
2022/08/19 02:58:32;;;;;;;28.02;24.55;;;;;;;19.98;68.26;101287.25;6213309;23;20091;-58
2022/08/19 03:00:58;;;;;;;28.08;25.08;;;;;;;19.93;68.27;101284.53;6212142;23;20082;-58
2022/08/19 03:03:23;;;;;;;27.90;24.90;;;;;;;19.91;68.05;101290.47;6213167;23;20064;-58
2022/08/19 03:05:49;;;;;;;28.15;25.30;;;;;;;19.86;68.26;101288.56;6211030;23;20424;-58
2022/08/19 03:08:14;;;;;;;29.02;24.65;;;;;;;19.86;68.25;101282.09;6212897;23;20005;-58
2022/08/19 03:10:43;;;;;;;30.08;26.67;;;;;;;19.84;68.31;101276.75;6212593;23;20467;-58
2022/08/19 03:13:09;;;;;;;30.48;24.80;;;;;;;19.83;68.17;101280.72;6213554;23;20067;-58
2022/08/19 03:15:34;;;;;;;29.77;26.58;;;;;;;19.82;68.31;101284.69;6212159;23;20040;-58
2022/08/19 03:17:59;;;;;;;30.52;27.27;;;;;;;19.83;68.23;101291.16;6211166;23;20064;-58
2022/08/19 03:20:26;;;;;;;29.77;26.63;;;;;;;19.82;68.28;101287.50;6212416;23;20019;-59
2022/08/19 03:22:51;;;;;;;33.45;26.52;;;;;;;19.80;68.38;101297.38;6213236;23;20417;-58
2022/08/19 03:25:16;;;;;;;31.60;27.40;;;;;;;19.75;68.39;101289.84;6210360;23;20000;-58
2022/08/19 03:27:42;;;;;;;32.72;27.98;;;;;;;19.75;68.42;101284.22;6212538;23;20063;-58
2022/08/19 03:30:08;;;;;;;31.35;26.88;;;;;;;19.74;68.36;101281.72;6211432;23;20005;-58
2022/08/19 03:32:33;;;;;;;32.55;28.85;;;;;;;19.69;68.65;101271.38;6211976;23;20058;-58
2022/08/19 03:34:59;;;;;;;33.95;28.70;;;;;;;19.71;68.34;101288.78;6210773;23;20433;-59
2022/08/19 03:37:25;;;;;;;31.92;28.48;;;;;;;19.73;68.23;101283.69;6213023;23;20000;-58
2022/08/19 03:39:51;;;;;;;33.40;29.45;;;;;;;19.66;68.32;101277.59;6211721;23;20028;-58
2022/08/19 03:42:16;;;;;;;30.30;27.08;;;;;;;19.69;68.19;101276.13;6212122;23;20328;-58
2022/08/19 03:44:44;;;;;;;32.53;28.67;;;;;;;19.62;68.40;101279.34;6212515;23;20035;-59
2022/08/19 03:47:12;;;;;;;33.35;29.77;;;;;;;19.59;68.47;101268.66;6212200;23;20432;-58
2022/08/19 03:49:37;;;;;;;34.25;29.73;;;;;;;19.61;68.30;101269.22;6212074;23;20005;-59
2022/08/19 03:52:06;;;;;;;35.22;31.40;;;;;;;19.62;68.40;101273.72;6211665;23;20011;-59
2022/08/19 03:54:32;;;;;;;34.75;30.95;;;;;;;19.57;68.74;101271.78;6211324;23;20272;-59
2022/08/19 03:56:58;;;;;;;35.38;31.65;;;;;;;19.55;68.47;101264.78;6212820;23;20032;-59
2022/08/19 03:59:33;;;;;;;35.20;31.45;;;;;;;19.54;68.72;101278.03;6214939;23;20049;-59
2022/08/19 04:02:02;;;;;;;37.40;33.35;;;;;;;19.48;68.95;101272.75;6212240;23;20055;-59
2022/08/19 04:04:28;;;;;;;37.45;33.28;;;;;;;19.48;69.04;101279.22;6212710;23;20008;-59
2022/08/19 04:06:54;;;;;;;38.00;32.83;;;;;;;19.47;68.88;101285.16;6212423;23;20000;-59
2022/08/19 04:09:20;;;;;;;38.13;33.67;;;;;;;19.41;68.97;101281.56;6214648;23;20324;-59
2022/08/19 04:11:53;;;;;;;41.75;35.63;;;;;;;19.41;69.45;101278.75;6213436;23;20012;-59
2022/08/19 04:14:23;;;;;;;42.00;36.40;;;;;;;19.40;69.40;101273.44;6213987;23;20005;-59
2022/08/19 04:16:49;;;;;;;39.35;35.25;;;;;;;19.36;69.29;101279.66;6213049;23;20008;-59
2022/08/19 04:19:16;;;;;;;42.03;37.20;;;;;;;19.35;69.40;101274.34;6212774;23;20487;-59
2022/08/19 04:21:44;;;;;;;42.67;37.30;;;;;;;19.42;69.20;101274.00;6211968;23;20015;-59
2022/08/19 04:24:10;;;;;;;42.58;36.90;;;;;;;19.36;69.16;101274.03;6210679;23;20039;-59
2022/08/19 04:26:36;;;;;;;42.25;37.13;;;;;;;19.33;69.13;101283.06;6211730;23;20005;-58
2022/08/19 04:29:06;;;;;;;41.92;37.25;;;;;;;19.36;69.27;101271.22;6213130;23;20000;-58
2022/08/19 04:31:35;;;;;;;45.10;40.25;;;;;;;19.36;69.38;101270.38;6209464;23;20005;-59
2022/08/19 04:34:03;;;;;;;50.35;39.45;;;;;;;19.35;69.64;101263.94;6211264;23;20011;-58
2022/08/19 04:36:31;;;;;;;47.20;39.35;;;;;;;19.36;69.56;101264.75;6212938;23;19996;-59
2022/08/19 04:39:00;;;;;;;51.00;40.47;;;;;;;19.32;69.31;101264.53;6212073;23;20020;-59
2022/08/19 04:44:19;;;;;;;49.20;39.53;;;;;;;19.38;69.38;101263.31;6211907;23;20135;-59
2022/08/19 04:46:48;;;;;;;53.80;41.47;;;;;;;19.30;69.57;101264.00;6213488;23;20024;-58
2022/08/19 04:49:16;;;;;;;48.55;40.45;;;;;;;19.33;69.18;101280.25;6214040;23;20004;-58
2022/08/19 04:51:44;;;;;;;50.83;40.72;;;;;;;19.25;69.53;101280.94;6213072;23;20336;-58
2022/08/19 04:54:10;;;;;;;50.17;40.10;;;;;;;19.26;69.39;101281.81;6210340;23;20028;-59
2022/08/19 04:56:35;;;;;;;48.00;40.30;;;;;;;19.29;69.62;101276.38;6208800;23;20012;-57
2022/08/19 04:59:03;;;;;;;50.67;40.53;;;;;;;19.24;69.59;101284.91;6210478;23;20333;-58
2022/08/19 05:01:35;;;;;;;53.17;41.53;;;;;;;19.24;69.65;101284.06;6212171;23;20009;-59
2022/08/19 05:04:03;;;;;;;48.53;39.40;;;;;;;19.24;69.54;101290.53;6213952;23;20005;-59
2022/08/19 05:06:32;;;;;;;50.38;39.70;;;;;;;19.27;69.67;101295.56;6213479;23;20055;-59
2022/08/19 05:08:58;;;;;;;52.92;41.55;;;;;;;19.30;69.61;101297.78;6214162;23;20377;-59
2022/08/19 05:11:26;;;;;;;52.08;41.28;;;;;;;19.25;69.58;101297.81;6214127;23;20016;-58
2022/08/19 05:13:52;;;;;;;52.60;41.08;;;;;;;19.29;69.59;101295.25;6212949;23;20798;-59
2022/08/19 05:16:19;;;;;;;52.35;42.65;;;;;;;19.26;69.69;101304.31;6213793;23;20028;-59
2022/08/19 05:24:14;;;;;;;56.38;45.08;;;;;;;19.19;69.97;101320.72;6214354;23;20074;-59
2022/08/19 05:26:46;;;;;;;54.17;43.35;;;;;;;19.24;70.06;101318.66;6214582;23;20015;-59
2022/08/19 05:29:13;;;;;;;57.70;44.58;;;;;;;19.21;70.19;101324.88;6214033;23;20421;-59
2022/08/19 05:31:39;;;;;;;57.35;43.67;;;;;;;19.26;70.14;101324.84;6213774;23;20008;-59
2022/08/19 05:34:05;;;;;;;58.33;45.88;;;;;;;19.16;70.20;101326.94;6214035;23;20011;-59
2022/08/19 05:36:39;;;;;;;58.38;44.40;;;;;;;19.22;70.17;101337.84;6213756;23;20427;-60
2022/08/19 05:39:04;;;;;;;60.53;46.60;;;;;;;19.18;70.43;101331.13;6213754;23;20017;-59
2022/08/19 05:41:30;;;;;;;61.42;46.97;;;;;;;19.25;69.89;101348.47;6213485;23;20028;-59
2022/08/19 05:43:56;;;;;;;60.03;47.75;;;;;;;19.25;70.29;101344.81;6214136;23;20024;-59
2022/08/19 05:46:22;;;;;;;65.80;47.28;;;;;;;19.24;70.35;101338.38;6214438;23;20005;-59
2022/08/19 05:48:48;;;;;;;64.82;47.63;;;;;;;19.28;69.96;101341.41;6213320;23;20084;-59
2022/08/19 05:51:14;;;;;;;59.83;45.75;;;;;;;19.29;70.24;101346.75;6214641;23;20005;-59
2022/08/19 05:53:39;;;;;;;65.93;46.75;;;;;;;19.24;70.63;101343.16;6214249;23;20004;-59
2022/08/19 05:56:10;;;;;;;65.35;48.00;;;;;;;19.21;70.43;101350.22;6213513;23;20005;-59
2022/08/19 05:58:37;;;;;;;63.85;48.28;;;;;;;19.28;69.96;101341.41;6213654;23;20005;-59
2022/08/19 06:01:09;;;;;;;64.55;48.10;;;;;;;19.27;70.46;101328.50;6214304;23;20015;-59
2022/08/19 06:03:37;;;;;;;62.25;47.03;;;;;;;19.28;70.23;101331.00;6213435;23;20000;-59
2022/08/19 06:06:03;;;;;;;59.65;46.13;;;;;;;19.29;70.18;101327.03;6213923;23;20033;-59
2022/08/19 06:08:29;;;;;;;63.15;46.00;;;;;;;19.25;70.17;101325.13;6214101;23;20040;-59
2022/08/19 06:10:55;;;;;;;66.50;48.75;;;;;;;19.27;70.30;101320.88;6213235;23;20096;-59
2022/08/19 06:13:20;;;;;;;61.95;45.63;;;;;;;19.29;69.90;101318.59;6213765;23;20067;-59
2022/08/19 06:15:46;;;;;;;65.38;46.15;;;;;;;19.27;70.40;101326.50;6213684;23;20005;-59
2022/08/19 06:18:13;;;;;;;60.08;44.83;;;;;;;19.32;70.12;101319.97;6213033;23;20009;-60
2022/08/19 06:20:39;;;;;;;62.50;46.67;;;;;;;19.35;70.39;101320.22;6213790;23;20005;-60
2022/08/19 06:23:04;;;;;;;61.03;44.75;;;;;;;19.38;70.31;101319.63;6214398;23;20009;-60
2022/08/19 06:25:30;;;;;;;60.58;42.40;;;;;;;19.47;70.13;101318.94;6213827;23;20005;-61
2022/08/19 06:27:55;;;;;;;59.03;43.55;;;;;;;19.54;69.76;101322.25;6214002;23;20063;-60
2022/08/19 06:30:20;;;;;;;57.13;41.83;;;;;;;19.59;69.87;101317.38;6213133;23;20004;-60
2022/08/19 06:32:46;;;;;;;57.85;43.30;;;;;;;19.65;69.68;101314.50;6214214;23;20001;-60
2022/08/19 06:35:13;;;;;;;57.00;42.05;;;;;;;19.65;69.78;101322.94;6213221;23;20004;-59
2022/08/19 06:37:38;;;;;;;57.25;42.60;;;;;;;19.59;69.95;101313.72;6212695;23;20005;-60
2022/08/19 06:40:04;;;;;;;56.05;40.33;;;;;;;19.67;69.76;101318.69;6212613;23;20019;-59
2022/08/19 06:42:30;;;;;;;55.63;40.40;;;;;;;19.78;69.51;101310.94;6212628;23;20004;-60
2022/08/19 06:44:55;;;;;;;53.50;39.45;;;;;;;19.82;69.26;101312.84;6211147;23;20012;-60
2022/08/19 06:47:21;;;;;;;55.03;39.53;;;;;;;19.81;69.59;101328.09;6212918;23;20004;-60
2022/08/19 06:49:47;;;;;;;58.33;40.60;;;;;;;19.90;69.40;101321.75;6212362;23;20066;-60
2022/08/19 06:52:12;;;;;;;52.55;39.28;;;;;;;19.88;69.71;101312.75;6212202;23;20012;-60
2022/08/19 06:54:39;;;;;;;53.70;39.47;;;;;;;19.90;69.32;101313.31;6213011;23;20005;-59
2022/08/19 06:57:06;;;;;;;57.90;39.50;;;;;;;19.99;69.59;101312.31;6213034;23;20000;-59
2022/08/19 06:59:32;;;;;;;52.67;38.42;;;;;;;20.06;69.65;101315.59;6212461;23;20012;-59
2022/08/19 07:02:00;;;;;;;54.83;36.92;;;;;;;20.15;69.22;101315.72;6212562;23;20016;-59
2022/08/19 07:04:31;;;;;;;45.75;33.45;;;;;;;20.25;69.10;101323.19;6212098;23;20009;-60
2022/08/19 07:07:00;;;;;;;47.80;34.17;;;;;;;20.34;68.80;101312.88;6212714;23;20012;-59
2022/08/19 07:09:26;;;;;;;51.08;34.60;;;;;;;20.35;68.80;101306.09;6212848;23;20016;-59
2022/08/19 07:11:53;;;;;;;51.28;35.92;;;;;;;20.40;69.07;101310.81;6212874;23;20009;-60
2022/08/19 07:14:21;;;;;;;50.55;34.45;;;;;;;20.50;68.93;101305.84;6211879;23;20005;-59
2022/08/19 07:16:49;;;;;;;50.72;34.15;;;;;;;20.34;69.41;101319.34;6212652;23;20009;-60
2022/08/19 07:19:15;;;;;;;44.55;33.53;;;;;;;20.48;69.20;101324.22;6212626;23;20376;-59
2022/08/19 07:21:41;;;;;;;47.45;32.03;;;;;;;20.54;69.18;101321.00;6212310;23;20012;-60
2022/08/19 07:24:07;;;;;;;45.72;32.25;;;;;;;20.54;69.15;101328.63;6212305;23;20337;-60
2022/08/19 07:26:38;;;;;;;41.55;31.25;;;;;;;20.58;69.18;101329.69;6212628;23;20205;-60
2022/08/19 07:29:05;;;;;;;46.28;32.55;;;;;;;20.61;69.05;101334.72;6212492;23;20012;-60
2022/08/19 07:31:30;;;;;;;43.40;32.47;;;;;;;20.61;69.29;101333.88;6212762;23;20054;-60
2022/08/19 07:33:56;;;;;;;46.30;32.08;;;;;;;20.63;69.38;101337.22;6211437;23;20008;-60
2022/08/19 07:36:32;;;;;;;47.60;33.65;;;;;;;20.56;69.53;101341.28;6212484;23;20413;-60
2022/08/19 07:38:59;;;;;;;43.60;31.85;;;;;;;20.59;69.48;101332.22;6051854;23;3751705;-60
2022/08/19 07:41:28;;;;;;;45.83;34.05;;;;;;;20.59;69.64;101340.69;6213267;23;20341;-59
2022/08/19 07:43:54;;;;;;;51.25;38.28;;;;;;;20.57;69.92;101345.78;6213723;23;20028;-60
2022/08/19 07:46:20;;;;;;;52.67;39.40;;;;;;;20.56;70.03;101349.75;6213003;23;20005;-60
2022/08/19 07:48:47;;;;;;;54.42;41.33;;;;;;;20.55;70.00;101353.72;6213288;23;20013;-60
2022/08/19 07:51:16;;;;;;;55.53;40.65;;;;;;;20.54;69.83;101354.00;6213537;23;20008;-60
2022/08/19 07:53:44;;;;;;;55.33;40.88;;;;;;;20.45;70.48;101364.31;6212961;23;20026;-60
2022/08/19 07:56:11;;;;;;;57.03;40.40;;;;;;;20.46;70.24;101365.97;6213407;23;20009;-60
2022/08/19 07:58:40;;;;;;;56.45;42.67;;;;;;;20.46;70.35;101374.44;6212853;23;20455;-60
2022/08/19 08:01:07;;;;;;;61.53;44.33;;;;;;;20.42;70.16;101364.91;6213828;23;20012;-60
2022/08/19 08:09:15;;;;;;;54.63;42.65;;;;;;;20.43;70.34;101370.22;6212930;23;20145;-60
2022/08/19 08:11:48;;;;;;;59.42;45.67;;;;;;;20.47;70.30;101373.28;6213785;23;20067;-60
2022/08/19 08:14:20;;;;;;;62.22;47.13;;;;;;;20.42;70.65;101373.38;6213683;23;20013;-60
2022/08/19 08:16:45;;;;;;;62.33;48.10;;;;;;;20.47;70.15;101374.09;6213389;23;20000;-58
2022/08/19 08:19:14;;;;;;;59.10;47.90;;;;;;;20.49;70.12;101382.31;6213010;23;20078;-60
2022/08/19 08:21:40;;;;;;;62.55;49.55;;;;;;;20.46;70.41;101382.88;6213463;23;20055;-60
2022/08/19 08:24:05;;;;;;;56.33;45.92;;;;;;;20.47;70.31;101378.91;6211968;23;20001;-59
2022/08/19 08:26:31;;;;;;;55.58;42.80;;;;;;;20.45;70.15;101386.84;6212883;23;20484;-61
2022/08/19 08:28:56;;;;;;;57.85;45.00;;;;;;;20.43;70.28;101391.94;6213327;23;20080;-60
2022/08/19 08:31:21;;;;;;;55.70;43.65;;;;;;;20.40;70.43;101393.41;6212994;23;20011;-60
2022/08/19 08:33:47;;;;;;;48.15;38.50;;;;;;;20.46;68.49;101389.34;6213495;23;20075;-60
2022/08/19 08:36:13;;;;;;;55.67;44.45;;;;;;;20.47;70.25;101393.00;6213590;23;20001;-60
2022/08/19 08:38:40;;;;;;;53.47;44.78;;;;;;;20.49;70.21;101397.25;6213265;23;20016;-60
2022/08/19 08:41:27;;;;;;;56.03;44.20;;;;;;;20.47;70.66;101390.19;6213976;23;20067;-60
2022/08/19 08:43:53;;;;;;;48.28;38.55;;;;;;;20.50;70.07;101401.72;6215144;23;20439;-60
2022/08/19 08:46:34;;;;;;;45.65;37.10;;;;;;;20.57;70.11;101409.81;6215022;23;20016;-60
2022/08/19 08:49:43;;;;;;;44.67;36.63;;;;;;;20.65;69.98;101402.63;6216104;23;20004;-60
2022/08/19 08:52:18;;;;;;;44.63;37.80;;;;;;;20.62;69.83;101412.53;6214027;23;20008;-59
2022/08/19 08:54:46;;;;;;;45.75;37.08;;;;;;;20.56;69.82;101416.59;6215304;23;20012;-59
2022/08/19 08:57:39;;;;;;;49.38;38.67;;;;;;;20.56;70.01;101408.16;6214799;23;20332;-59
2022/08/19 09:00:12;;;;;;;44.45;37.55;;;;;;;20.59;69.98;101402.72;6213124;23;20015;-59
2022/08/19 09:02:37;;;;;;;47.05;36.85;;;;;;;20.64;70.08;101396.16;6214885;23;20000;-59
2022/08/19 09:05:03;;;;;;;52.85;39.60;;;;;;;20.65;70.18;101394.19;6214482;23;20115;-59
2022/08/19 09:07:49;;;;;;;54.20;39.03;;;;;;;20.66;70.09;101395.84;6215724;23;20011;-60
2022/08/19 09:10:28;;;;;;;46.75;37.58;;;;;;;20.67;70.14;101395.56;6214483;23;20324;-59
2022/08/19 09:13:21;;;;;;;48.60;37.85;;;;;;;20.74;70.01;101401.59;6214384;23;20437;-60
2022/08/19 09:15:57;;;;;;;52.40;38.97;;;;;;;20.74;69.54;101398.78;6214917;23;20357;-60
2022/08/19 09:18:22;;;;;;;54.90;40.25;;;;;;;20.75;69.78;101399.63;6215497;23;20012;-59
2022/08/19 09:20:47;;;;;;;56.85;41.45;;;;;;;20.79;69.76;101401.53;6214131;23;20008;-59
2022/08/19 09:23:13;;;;;;;50.97;40.50;;;;;;;20.79;69.47;101406.34;6213836;23;20012;-59
2022/08/19 09:25:39;;;;;;;53.08;40.90;;;;;;;20.72;69.15;101403.09;6213705;23;20035;-59
2022/08/19 09:28:05;;;;;;;50.78;40.25;;;;;;;20.78;69.55;101418.75;6214676;23;20032;-59
2022/08/19 09:30:39;;;;;;;50.17;41.42;;;;;;;20.76;69.57;101413.44;6214060;23;20636;-59
2022/08/19 09:33:04;;;;;;;54.70;41.63;;;;;;;20.74;69.38;101418.53;6215268;23;20004;-59
2022/08/19 09:35:35;;;;;;;50.70;40.35;;;;;;;20.76;69.43;101415.44;6213728;23;20004;-59
2022/08/19 09:38:00;;;;;;;50.53;40.83;;;;;;;20.74;69.38;101424.19;6214502;23;20009;-59
2022/08/19 09:40:30;;;;;;;50.13;39.25;;;;;;;20.80;69.28;101422.97;6214473;23;20478;-59
2022/08/19 09:42:56;;;;;;;50.65;39.55;;;;;;;20.86;69.48;101417.22;6215364;23;20015;-59
2022/08/19 09:45:22;;;;;;;53.67;40.30;;;;;;;20.87;69.36;101421.72;6214507;23;20004;-59
2022/08/19 09:47:50;;;;;;;50.85;38.65;;;;;;;20.86;69.53;101414.41;6214850;23;20369;-59
2022/08/19 09:50:17;;;;;;;52.20;39.60;;;;;;;20.89;69.46;101414.63;6215296;23;20004;-59
2022/08/19 09:52:43;;;;;;;47.83;37.20;;;;;;;20.90;69.06;101419.09;6213182;23;20001;-59
2022/08/19 09:55:10;;;;;;;48.55;37.67;;;;;;;20.94;68.80;101422.16;6214259;23;20035;-59
2022/08/19 09:57:35;;;;;;;45.95;37.90;;;;;;;20.95;68.92;101419.03;6215192;23;20015;-58
2022/08/19 10:00:02;;;;;;;48.10;38.28;;;;;;;20.95;69.11;101419.03;6214490;23;20084;-59
2022/08/19 10:02:28;;;;;;;47.55;38.05;;;;;;;20.98;69.22;101421.22;6214637;23;20012;-59
2022/08/19 10:07:37;;;;;;;46.30;37.95;;;;;;;20.99;68.97;101433.38;6214966;23;20031;-59
2022/08/19 10:10:05;;;;;;;49.25;37.45;;;;;;;20.98;68.50;101432.50;6212827;23;20417;-59
2022/08/19 10:12:31;;;;;;;47.08;38.35;;;;;;;21.02;68.78;101436.38;6214413;23;20014;-59
2022/08/19 10:14:56;;;;;;;48.85;37.35;;;;;;;20.99;69.10;101430.56;6214532;23;20051;-59
2022/08/19 10:17:22;;;;;;;51.60;38.90;;;;;;;21.00;69.38;101418.94;6213161;23;20059;-59
2022/08/19 10:19:47;;;;;;;50.45;38.08;;;;;;;21.00;69.45;101427.41;6214488;23;20047;-59
2022/08/19 10:22:14;;;;;;;46.83;37.88;;;;;;;21.05;69.09;101418.00;6214692;23;20091;-59
2022/08/19 10:24:39;;;;;;;51.65;38.47;;;;;;;21.07;69.02;101421.38;6214215;23;20419;-60
2022/08/19 10:27:05;;;;;;;48.90;36.83;;;;;;;21.12;69.02;101412.78;6214426;23;20009;-59
2022/08/19 10:29:34;;;;;;;51.03;38.90;;;;;;;21.11;69.11;101416.78;6214020;23;20009;-59
2022/08/19 10:32:08;;;;;;;50.08;38.30;;;;;;;21.17;68.71;101421.16;6214507;23;20011;-60
2022/08/19 10:34:35;;;;;;;47.03;35.72;;;;;;;21.22;68.67;101414.56;6214000;23;20008;-59
2022/08/19 10:37:00;;;;;;;47.92;37.97;;;;;;;21.20;68.35;101417.72;6213881;23;20009;-60
2022/08/19 10:39:29;;;;;;;51.38;37.90;;;;;;;21.21;68.24;101416.56;6213505;23;20318;-60
2022/08/19 10:41:55;;;;;;;44.80;34.25;;;;;;;21.24;68.07;101418.78;6213355;23;20016;-60
2022/08/19 10:44:22;;;;;;;47.05;36.95;;;;;;;21.27;67.61;101420.97;6213894;23;20005;-60
2022/08/19 10:46:48;;;;;;;45.50;34.47;;;;;;;21.29;67.43;101415.84;6213513;23;20008;-59
2022/08/19 10:49:13;;;;;;;40.42;32.13;;;;;;;21.35;65.64;101412.97;6213590;23;20005;-59
2022/08/19 10:56:50;;;;;;;45.13;32.92;;;;;;;21.37;67.94;101413.47;6213469;23;20095;-59
2022/08/19 10:57:09;;;;;;;43.50;32.10;;;;;;;21.39;67.46;101400.75;6213091;23;20005;-59
2022/08/19 10:59:35;;;;;;;43.28;33.25;;;;;;;21.43;67.23;101404.59;6212556;23;20385;-59
2022/08/19 11:02:03;;;;;;;44.97;34.22;;;;;;;21.41;67.01;101406.06;6213071;23;20015;-60
2022/08/19 11:04:28;;;;;;;44.25;33.25;;;;;;;21.47;67.40;101399.16;6213639;23;20005;-59
2022/08/19 11:06:55;;;;;;;44.00;34.58;;;;;;;21.49;67.53;101403.34;6212711;23;20455;-60
2022/08/19 11:09:26;;;;;;;42.47;32.80;;;;;;;21.54;67.28;101408.06;6213448;23;20321;-60
2022/08/19 11:11:52;;;;;;;46.10;33.50;;;;;;;21.59;67.09;101401.47;6213119;23;20027;-59
2022/08/19 11:14:20;;;;;;;43.47;34.47;;;;;;;21.61;67.52;101402.81;6213643;23;20005;-59
2022/08/19 11:16:53;;;;;;;46.95;34.90;;;;;;;21.64;67.18;101395.72;6214318;23;20009;-59
2022/08/19 11:19:19;;;;;;;47.03;36.15;;;;;;;21.67;67.04;101401.56;6212497;23;20357;-59
2022/08/19 11:21:46;;;;;;;51.60;38.25;;;;;;;21.72;66.59;101403.44;6214542;23;20082;-60
2022/08/19 11:24:15;;;;;;;54.15;41.20;;;;;;;21.73;66.00;101405.09;6213612;23;20531;-59
2022/08/19 11:26:44;;;;;;;47.50;38.78;;;;;;;21.77;65.81;101408.97;6211021;23;20444;-59
2022/08/19 11:29:12;;;;;;;42.53;34.95;;;;;;;21.81;65.33;101402.41;6214121;23;20008;-59
2022/08/19 11:31:39;;;;;;;45.63;36.17;;;;;;;21.92;64.87;101397.34;6214129;23;20035;-60